createdAt,value
2019-06-10T00:00:53.620Z,101519.33
2019-06-10T00:03:21.909Z,101514.63
2019-06-10T00:05:51.731Z,101517.45
2019-06-10T00:08:20.871Z,101511.52
2019-06-10T00:10:51.093Z,101512.27
2019-06-10T00:13:20.954Z,101513.96
2019-06-10T00:15:51.517Z,101510.10
2019-06-10T00:18:35.190Z,101513.69
2019-06-10T00:20:51.254Z,101502.86
2019-06-10T00:23:21.250Z,101498.34
2019-06-10T00:28:21.594Z,101494.67
2019-06-10T00:30:51.423Z,101484.59
2019-06-10T00:33:21.456Z,101476.03
2019-06-10T00:35:51.320Z,101468.31
2019-06-10T00:38:21.435Z,101465.11
2019-06-10T00:40:51.357Z,101466.93
2019-06-10T00:43:21.362Z,101457.90
2019-06-10T00:45:51.385Z,101459.12
2019-06-10T00:48:28.279Z,101460.44
2019-06-10T00:50:51.637Z,101457.70
2019-06-10T00:53:21.204Z,101449.80
2019-06-10T00:55:51.618Z,101455.42
2019-06-10T00:58:21.654Z,101455.42
2019-06-10T01:00:51.704Z,101451.19
2019-06-10T01:03:20.926Z,101453.84
2019-06-10T01:05:50.890Z,101449.88
2019-06-10T01:08:21.435Z,101451.69
2019-06-10T01:10:51.999Z,101441.81
2019-06-10T01:13:20.837Z,101437.77
2019-06-10T01:15:51.116Z,101431.08
2019-06-10T01:19:01.453Z,101431.64
2019-06-10T01:21:31.374Z,101429.11
2019-06-10T01:24:01.212Z,101429.58
2019-06-10T01:26:31.040Z,101423.65
2019-06-10T01:31:38.759Z,101416.47
2019-06-10T01:34:07.395Z,101424.97
2019-06-10T01:36:37.200Z,101421.86
2019-06-10T01:39:41.129Z,101419.01
2019-06-10T01:42:12.250Z,101412.64
2019-06-10T01:44:41.201Z,101406.11
2019-06-10T01:47:11.845Z,101399.91
2019-06-10T01:49:41.242Z,101407.05
2019-06-10T01:52:11.975Z,101401.44
2019-06-10T01:54:41.894Z,101398.91
2019-06-10T01:57:12.004Z,101386.95
2019-06-10T01:59:41.288Z,101386.23
2019-06-10T02:04:48.615Z,101362.53
2019-06-10T02:07:18.485Z,101361.77
2019-06-10T02:09:46.900Z,101361.55
2019-06-10T02:12:17.605Z,101356.88
2019-06-10T02:14:45.195Z,101346.78
2019-06-10T02:17:16.052Z,101348.89
2019-06-10T02:19:43.473Z,101336.81
2019-06-10T02:22:14.970Z,101336.16
2019-06-10T02:24:41.787Z,101332.58
2019-06-10T02:27:13.007Z,101329.70
2019-06-10T02:29:41.238Z,101323.21
2019-06-10T02:32:14.577Z,101317.38
2019-06-10T02:34:53.225Z,101314.84
2019-06-10T02:37:13.641Z,101314.84
2019-06-10T02:39:43.745Z,101304.40
2019-06-10T02:44:59.060Z,101310.52
2019-06-10T02:47:33.460Z,101310.57
2019-06-10T02:50:03.317Z,101313.30
2019-06-10T02:52:33.002Z,101302.28
2019-06-10T02:54:57.888Z,101298.00
2019-06-10T02:57:33.757Z,101304.20
2019-06-10T02:59:56.203Z,101305.53
2019-06-10T03:02:31.226Z,101307.88
2019-06-10T03:04:54.502Z,101312.59
2019-06-10T03:07:26.801Z,101310.36
2019-06-10T03:09:53.746Z,101310.08
2019-06-10T03:12:24.567Z,101305.38
2019-06-10T03:14:52.829Z,101301.23
2019-06-10T03:20:02.359Z,101284.78
2019-06-10T03:22:30.050Z,101281.77
2019-06-10T03:24:58.345Z,101265.70
2019-06-10T03:27:27.959Z,101257.99
2019-06-10T03:29:56.633Z,101257.33
2019-06-10T03:32:32.133Z,101256.98
2019-06-10T03:34:55.295Z,101246.84
2019-06-10T03:37:44.282Z,101237.91
2019-06-10T03:40:13.150Z,101237.91
2019-06-10T03:42:42.883Z,101239.50
2019-06-10T03:45:44.862Z,101239.02
2019-06-10T03:48:13.181Z,101235.17
2019-06-10T03:50:43.111Z,101229.44
2019-06-10T03:53:12.837Z,101233.29
2019-06-10T03:55:42.378Z,101241.55
2019-06-10T03:58:12.560Z,101241.38
2019-06-10T04:00:43.092Z,101237.91
2019-06-10T04:03:12.182Z,101217.51
2019-06-10T04:05:42.362Z,101208.20
2019-06-10T04:08:12.565Z,101210.84
2019-06-10T04:10:42.977Z,101208.98
2019-06-10T04:15:53.288Z,101213.41
2019-06-10T04:18:22.508Z,101212.34
2019-06-10T04:20:52.879Z,101208.23
2019-06-10T04:23:23.828Z,101214.05
2019-06-10T04:25:52.694Z,101207.85
2019-06-10T04:28:24.143Z,101209.08
2019-06-10T04:30:53.452Z,101197.78
2019-06-10T04:33:22.874Z,101191.20
2019-06-10T04:35:51.970Z,101198.53
2019-06-10T04:38:22.946Z,101202.20
2019-06-10T04:40:52.526Z,101203.91
2019-06-10T04:43:23.110Z,101201.82
2019-06-10T04:45:52.754Z,101197.41
2019-06-10T04:48:23.201Z,101198.06
2019-06-10T04:50:53.426Z,101201.53
2019-06-10T04:53:23.689Z,101201.16
2019-06-10T04:55:52.296Z,101202.58
2019-06-10T04:58:23.880Z,101203.41
2019-06-10T05:00:52.347Z,101201.16
2019-06-10T05:03:23.521Z,101195.33
2019-06-10T05:05:52.598Z,101187.62
2019-06-10T05:08:23.512Z,101181.23
2019-06-10T05:10:52.964Z,101187.72
2019-06-10T05:13:23.797Z,101184.80
2019-06-10T05:15:52.730Z,101176.81
2019-06-10T05:18:23.847Z,101174.56
2019-06-10T05:20:58.228Z,101178.79
2019-06-10T05:23:22.473Z,101178.22
2019-06-10T05:25:52.668Z,101168.54
2019-06-10T05:28:23.014Z,101166.61
2019-06-10T05:30:53.184Z,101162.48
2019-06-10T05:36:02.308Z,101160.96
2019-06-10T05:38:34.737Z,101155.97
2019-06-10T05:41:02.623Z,101151.77
2019-06-10T05:43:32.926Z,101154.77
2019-06-10T05:46:02.911Z,101153.44
2019-06-10T05:48:31.002Z,101154.30
2019-06-10T05:51:05.748Z,101162.48
2019-06-10T05:53:31.520Z,101162.11
2019-06-10T05:56:02.236Z,101165.39
2019-06-10T05:58:32.738Z,101169.44
2019-06-10T06:01:02.510Z,101166.71
2019-06-10T06:03:33.423Z,101169.15
2019-06-10T06:06:02.893Z,101166.97
2019-06-10T06:08:33.347Z,101161.28
2019-06-10T06:11:02.962Z,101167.58
2019-06-10T06:13:34.203Z,101168.98
2019-06-10T06:16:03.018Z,101174.91
2019-06-10T06:18:33.208Z,101168.81
2019-06-10T06:21:17.168Z,101160.05
2019-06-10T06:23:33.340Z,101163.55
2019-06-10T06:26:03.638Z,101165.20
2019-06-10T06:28:32.905Z,101162.98
2019-06-10T06:31:00.429Z,101153.73
2019-06-10T06:33:29.412Z,101146.80
2019-06-10T06:35:58.722Z,101149.72
2019-06-10T06:38:27.011Z,101144.82
2019-06-10T06:40:55.331Z,101143.56
2019-06-10T06:43:23.608Z,101145.48
2019-06-10T06:45:53.127Z,101146.58
2019-06-10T06:48:22.750Z,101140.47
2019-06-10T06:51:04.577Z,101138.05
2019-06-10T06:53:32.370Z,101132.54
2019-06-10T06:55:55.795Z,101132.70
2019-06-10T06:58:23.174Z,101125.91
2019-06-10T07:01:01.890Z,101119.91
2019-06-10T07:03:22.987Z,101125.31
2019-06-10T07:06:25.366Z,101126.73
2019-06-10T07:09:26.957Z,101120.88
2019-06-10T07:12:28.403Z,101112.03
2019-06-10T07:14:56.678Z,101115.37
2019-06-10T07:17:24.976Z,101107.19
2019-06-10T07:20:12.700Z,101099.83
2019-06-10T07:22:42.719Z,101098.34
2019-06-10T07:25:47.090Z,101105.94
2019-06-10T07:28:14.642Z,101109.77
2019-06-10T07:30:51.051Z,101112.03
2019-06-10T07:33:12.933Z,101111.83
2019-06-10T07:35:43.755Z,101114.45
2019-06-10T07:38:12.219Z,101114.95
2019-06-10T07:41:02.616Z,101111.94
2019-06-10T07:43:32.387Z,101104.87
2019-06-10T07:46:00.357Z,101097.59
2019-06-10T07:48:28.642Z,101098.37
2019-06-10T07:50:56.927Z,101089.30
2019-06-10T07:53:25.223Z,101095.62
2019-06-10T07:55:53.669Z,101092.94
2019-06-10T07:58:22.527Z,101095.98
2019-06-10T08:00:53.382Z,101094.05
2019-06-10T08:03:22.532Z,101087.88
2019-06-10T08:05:52.513Z,101087.55
2019-06-10T08:08:23.506Z,101092.31
2019-06-10T08:10:52.919Z,101089.97
2019-06-10T08:13:22.642Z,101083.63
2019-06-10T08:15:53.249Z,101084.40
2019-06-10T08:18:22.604Z,101086.45
2019-06-10T08:20:52.856Z,101080.19
2019-06-10T08:23:55.676Z,101086.16
2019-06-10T08:26:23.970Z,101084.47
2019-06-10T08:28:53.018Z,101083.48
2019-06-10T08:31:22.723Z,101085.92
2019-06-10T08:33:53.347Z,101088.08
2019-06-10T08:37:04.277Z,101084.50
2019-06-10T08:42:19.898Z,101070.24
2019-06-10T08:44:48.600Z,101071.19
2019-06-10T08:47:18.197Z,101068.38
2019-06-10T08:49:49.013Z,101071.13
2019-06-10T08:52:16.472Z,101078.42
2019-06-10T08:54:47.933Z,101073.50
2019-06-10T08:57:14.763Z,101074.39
2019-06-10T08:59:46.019Z,101085.34
2019-06-10T09:02:13.474Z,101086.44
2019-06-10T09:04:46.027Z,101089.12
2019-06-10T09:07:13.049Z,101098.42
2019-06-10T09:09:45.743Z,101097.21
2019-06-10T09:12:27.917Z,101098.36
2019-06-10T09:14:44.035Z,101107.61
2019-06-10T09:17:13.291Z,101104.42
2019-06-10T09:19:46.402Z,101094.37
2019-06-10T09:22:12.645Z,101085.64
2019-06-10T09:24:47.043Z,101088.83
2019-06-10T09:27:12.978Z,101079.36
2019-06-10T09:29:46.179Z,101072.78
2019-06-10T09:32:12.571Z,101068.85
2019-06-10T09:34:43.039Z,101066.05
2019-06-10T09:37:12.446Z,101064.80
2019-06-10T09:39:59.214Z,101066.11
2019-06-10T09:42:23.905Z,101061.33
2019-06-10T09:45:26.219Z,101063.41
2019-06-10T09:48:28.380Z,101055.62
2019-06-10T09:50:58.597Z,101053.70
2019-06-10T09:53:38.964Z,101045.16
2019-06-10T09:55:56.797Z,101046.59
2019-06-10T09:58:25.078Z,101037.12
2019-06-10T10:01:33.400Z,101033.84
2019-06-10T10:04:01.715Z,101030.47
2019-06-10T10:06:32.545Z,101025.41
2019-06-10T10:09:00.110Z,101020.31
2019-06-10T10:11:28.751Z,101016.22
2019-06-10T10:13:58.384Z,101003.80
2019-06-10T10:16:26.676Z,101003.06
2019-06-10T10:19:00.220Z,101011.20
2019-06-10T10:21:24.995Z,101003.66
2019-06-10T10:24:06.351Z,101012.98
2019-06-10T10:26:23.292Z,101019.00
2019-06-10T10:28:53.196Z,101022.56
2019-06-10T10:31:23.275Z,101029.71
2019-06-10T10:33:52.629Z,101017.23
2019-06-10T10:36:22.563Z,101016.00
2019-06-10T10:38:50.950Z,101014.47
2019-06-10T10:41:19.238Z,101028.03
2019-06-10T10:43:51.168Z,101030.96
2019-06-10T10:46:17.515Z,101034.94
2019-06-10T10:48:46.996Z,101033.78
2019-06-10T10:51:15.812Z,101031.89
2019-06-10T10:53:48.401Z,101022.05
2019-06-10T10:56:14.131Z,101018.98
2019-06-10T10:58:43.718Z,101013.72
2019-06-10T11:01:14.966Z,101015.45
2019-06-10T11:04:03.920Z,101013.77
2019-06-10T11:06:32.423Z,100999.09
2019-06-10T11:09:00.610Z,100992.95
2019-06-10T11:11:52.222Z,100973.50
2019-06-10T11:14:19.785Z,100983.75
2019-06-10T11:16:49.499Z,100987.62
2019-06-10T11:19:18.057Z,100995.66
2019-06-10T11:21:47.409Z,100994.48
2019-06-10T11:26:58.273Z,100978.45
2019-06-10T11:29:26.836Z,100978.95
2019-06-10T11:31:57.409Z,100963.97
2019-06-10T11:34:25.100Z,100965.53
2019-06-10T11:36:55.232Z,100962.14
2019-06-10T11:39:23.377Z,100958.16
2019-06-10T11:41:53.270Z,100948.67
2019-06-10T11:44:22.465Z,100949.44
2019-06-10T11:46:54.451Z,100948.39
2019-06-10T11:49:23.775Z,100939.29
2019-06-10T11:51:54.284Z,100939.27
2019-06-10T11:54:50.582Z,100955.79
2019-06-10T11:57:04.691Z,100951.95
2019-06-10T11:59:32.962Z,100958.38
2019-06-10T12:02:05.669Z,100952.09
2019-06-10T12:04:31.259Z,100945.70
2019-06-10T12:07:02.198Z,100945.64
2019-06-10T12:09:29.704Z,100934.61
2019-06-10T12:12:01.274Z,100929.44
2019-06-10T12:14:28.004Z,100932.00
2019-06-10T12:19:26.272Z,100934.02
2019-06-10T12:21:57.739Z,100943.43
2019-06-10T12:24:24.586Z,100936.97
2019-06-10T12:26:55.526Z,100928.85
2019-06-10T12:29:22.877Z,100941.38
2019-06-10T12:31:54.093Z,100935.73
2019-06-10T12:34:22.683Z,100931.38
2019-06-10T12:36:56.233Z,100937.03
2019-06-10T12:39:22.897Z,100940.32
2019-06-10T12:41:54.633Z,100932.44
2019-06-10T12:44:22.820Z,100940.88
2019-06-10T12:46:53.942Z,100943.30
2019-06-10T12:49:21.195Z,100935.02
2019-06-10T12:51:49.456Z,100935.70
2019-06-10T12:54:17.724Z,100923.89
2019-06-10T12:56:46.002Z,100927.89
2019-06-10T12:59:14.271Z,100917.75
2019-06-10T13:01:44.754Z,100918.94
2019-06-10T13:04:45.892Z,100915.73
2019-06-10T13:07:26.157Z,100917.44
2019-06-10T13:10:34.461Z,100910.80
2019-06-10T13:13:06.707Z,100910.55
2019-06-10T13:15:32.962Z,100920.98
2019-06-10T13:18:03.913Z,100920.41
2019-06-10T13:20:32.168Z,100915.14
2019-06-10T13:23:07.302Z,100913.30
2019-06-10T13:25:33.383Z,100910.39
2019-06-10T13:28:04.196Z,100910.92
2019-06-10T13:30:34.143Z,100900.23
2019-06-10T13:33:06.662Z,100898.52
2019-06-10T13:35:32.228Z,100891.83
2019-06-10T13:38:04.159Z,100890.45
2019-06-10T13:40:32.050Z,100895.42
2019-06-10T13:43:01.852Z,100896.42
2019-06-10T13:45:30.223Z,100898.64
2019-06-10T13:47:58.804Z,100885.02
2019-06-10T13:50:27.216Z,100883.59
2019-06-10T13:52:55.486Z,100879.84
2019-06-10T13:55:23.815Z,100877.79
2019-06-10T13:57:53.239Z,100871.66
2019-06-10T14:03:23.741Z,100866.60
2019-06-10T14:05:57.608Z,100862.94
2019-06-10T14:08:23.370Z,100854.05
2019-06-10T14:10:53.989Z,100854.43
2019-06-10T14:13:23.494Z,100848.67
2019-06-10T14:18:32.634Z,100844.95
2019-06-10T14:21:04.929Z,100832.86
2019-06-10T14:23:33.138Z,100836.52
2019-06-10T14:26:03.274Z,100821.80
2019-06-10T14:28:40.694Z,100822.50
2019-06-10T14:31:38.731Z,100821.48
2019-06-10T14:33:53.115Z,100825.72
2019-06-10T14:36:22.193Z,100825.33
2019-06-10T14:38:50.577Z,100818.16
2019-06-10T14:41:18.881Z,100816.17
2019-06-10T14:43:47.142Z,100812.51
2019-06-10T14:46:17.451Z,100797.77
2019-06-10T14:48:45.421Z,100795.98
2019-06-10T14:51:15.783Z,100802.23
2019-06-10T14:53:43.705Z,100797.52
2019-06-10T14:56:14.864Z,100800.36
2019-06-10T14:58:42.502Z,100800.78
2019-06-10T15:01:32.154Z,100795.30
2019-06-10T15:04:02.983Z,100805.34
2019-06-10T15:06:33.815Z,100810.62
2019-06-10T15:09:01.365Z,100805.67
2019-06-10T15:11:32.018Z,100802.81
2019-06-10T15:13:59.672Z,100796.63
2019-06-10T15:16:27.935Z,100794.97
2019-06-10T15:19:10.954Z,100793.32
2019-06-10T15:21:26.246Z,100798.51
2019-06-10T15:23:54.528Z,100798.00
2019-06-10T15:26:22.796Z,100788.45
2019-06-10T15:31:30.197Z,100776.45
2019-06-10T15:33:58.433Z,100767.97
2019-06-10T15:36:26.712Z,100768.95
2019-06-10T15:38:54.990Z,100766.52
2019-06-10T15:41:24.645Z,100758.33
2019-06-10T15:43:53.278Z,100759.26
2019-06-10T15:46:22.376Z,100759.10
2019-06-10T15:48:53.914Z,100766.72
2019-06-10T15:51:25.109Z,100772.72
2019-06-10T15:56:43.769Z,100781.45
2019-06-10T15:58:59.706Z,100780.16
2019-06-10T16:01:27.979Z,100769.17
2019-06-10T16:03:56.255Z,100770.70
2019-06-10T16:06:24.531Z,100777.91
2019-06-10T16:08:53.058Z,100779.49
2019-06-10T16:11:25.484Z,100779.98
2019-06-10T16:13:53.389Z,100781.61
2019-06-10T16:16:21.348Z,100772.67
2019-06-10T16:18:49.641Z,100774.25
2019-06-10T16:21:19.122Z,100775.68
2019-06-10T16:23:47.931Z,100787.71
2019-06-10T16:26:16.322Z,100789.10
2019-06-10T16:29:03.907Z,100785.36
2019-06-10T16:31:32.191Z,100785.36
2019-06-10T16:34:04.124Z,100786.98
2019-06-10T16:39:09.501Z,100807.88
2019-06-10T16:41:37.792Z,100819.05
2019-06-10T16:44:06.075Z,100823.90
2019-06-10T16:46:34.429Z,100831.41
2019-06-10T16:49:03.253Z,100820.41
2019-06-10T16:51:32.699Z,100823.40
2019-06-10T16:54:02.408Z,100815.99
2019-06-10T16:56:33.606Z,100820.05
2019-06-10T16:59:02.961Z,100817.60
2019-06-10T17:01:33.171Z,100822.88
2019-06-10T17:04:01.082Z,100817.56
2019-06-10T17:06:29.937Z,100818.54
2019-06-10T17:08:59.378Z,100809.14
2019-06-10T17:11:29.397Z,100813.44
2019-06-10T17:13:57.712Z,100803.84
2019-06-10T17:16:27.642Z,100805.90
2019-06-10T17:18:55.983Z,100806.71
2019-06-10T17:21:28.061Z,100802.52
2019-06-10T17:23:54.307Z,100808.77
2019-06-10T17:26:29.437Z,100811.28
2019-06-10T17:28:52.570Z,100814.50
2019-06-10T17:31:25.790Z,100814.66
2019-06-10T17:33:53.125Z,100811.88
2019-06-10T17:36:25.736Z,100808.83
2019-06-10T17:38:52.348Z,100806.54
2019-06-10T17:41:24.072Z,100799.21
2019-06-10T17:43:52.087Z,100804.06
2019-06-10T17:46:23.585Z,100796.95
2019-06-10T17:48:52.137Z,100795.27
2019-06-10T17:51:22.870Z,100787.24
2019-06-10T17:53:52.978Z,100774.60
2019-06-10T17:56:23.087Z,100769.05
2019-06-10T17:58:57.011Z,100763.13
2019-06-10T18:01:22.563Z,100766.05
2019-06-10T18:04:04.060Z,100769.88
2019-06-10T18:06:36.128Z,100769.88
2019-06-10T18:09:04.015Z,100765.16
2019-06-10T18:11:34.515Z,100764.59
2019-06-10T18:14:02.759Z,100760.14
2019-06-10T18:16:35.873Z,100757.86
2019-06-10T18:19:03.367Z,100755.92
2019-06-10T18:21:33.485Z,100756.70
2019-06-10T18:24:15.459Z,100753.47
2019-06-10T18:26:43.743Z,100749.64
2019-06-10T18:29:12.859Z,100758.51
2019-06-10T18:31:42.693Z,100759.45
2019-06-10T18:34:13.130Z,100769.80
2019-06-10T18:36:42.772Z,100772.19
2019-06-10T18:39:12.467Z,100771.77
2019-06-10T18:41:43.585Z,100766.55
2019-06-10T18:44:22.534Z,100763.22
2019-06-10T18:46:43.277Z,100761.66
2019-06-10T18:49:13.284Z,100757.75
2019-06-10T18:51:43.455Z,100754.93
2019-06-10T18:54:12.850Z,100754.65
2019-06-10T18:56:43.036Z,100746.72
2019-06-10T18:59:20.510Z,100749.34
2019-06-10T19:01:42.519Z,100744.83
2019-06-10T19:04:12.956Z,100744.12
2019-06-10T19:09:12.625Z,100733.57
2019-06-10T19:11:53.471Z,100729.73
2019-06-10T19:14:12.630Z,100731.30
2019-06-10T19:16:40.227Z,100732.23
2019-06-10T19:19:08.487Z,100730.17
2019-06-10T19:21:36.805Z,100731.27
2019-06-10T19:24:45.133Z,100717.80
2019-06-10T19:27:13.409Z,100715.22
2019-06-10T19:29:50.089Z,100713.39
2019-06-10T19:32:12.549Z,100706.04
2019-06-10T19:34:47.261Z,100703.01
2019-06-10T19:37:12.864Z,100707.41
2019-06-10T19:39:50.056Z,100707.69
2019-06-10T19:42:13.060Z,100708.13
2019-06-10T19:44:45.579Z,100713.64
2019-06-10T19:47:12.986Z,100704.20
2019-06-10T19:49:43.660Z,100706.63
2019-06-10T19:52:12.110Z,100696.38
2019-06-10T19:54:43.494Z,100689.11
2019-06-10T19:57:12.733Z,100682.32
2019-06-10T19:59:55.861Z,100677.06
2019-06-10T20:02:10.478Z,100667.09
2019-06-10T20:04:39.786Z,100659.81
2019-06-10T20:07:08.774Z,100661.85
2019-06-10T20:09:38.058Z,100659.34
2019-06-10T20:14:47.629Z,100657.91
2019-06-10T20:17:16.430Z,100651.67
2019-06-10T20:19:45.975Z,100658.62
2019-06-10T20:22:14.727Z,100655.16
2019-06-10T20:24:44.752Z,100663.36
2019-06-10T20:27:13.029Z,100660.96
2019-06-10T20:29:43.001Z,100659.06
2019-06-10T20:32:11.334Z,100657.98
2019-06-10T20:34:39.686Z,100660.10
2019-06-10T20:37:07.961Z,100646.06
2019-06-10T20:39:36.258Z,100640.66
2019-06-10T20:42:04.536Z,100640.91
2019-06-10T20:44:32.828Z,100654.34
2019-06-10T20:47:01.110Z,100659.27
2019-06-10T20:49:29.392Z,100666.22
2019-06-10T20:52:09.953Z,100683.38
2019-06-10T20:54:27.683Z,100684.23
2019-06-10T20:56:55.974Z,100679.91
2019-06-10T20:59:25.997Z,100685.91
2019-06-10T21:01:54.463Z,100694.45
2019-06-10T21:04:22.742Z,100695.74
2019-06-10T21:06:53.153Z,100700.54
2019-06-10T21:09:33.595Z,100692.30
2019-06-10T21:12:02.168Z,100687.02
2019-06-10T21:14:33.115Z,100685.06
2019-06-10T21:17:02.974Z,100675.86
2019-06-10T21:19:33.107Z,100688.13
2019-06-10T21:22:02.732Z,100682.97
2019-06-10T21:24:32.439Z,100682.45
2019-06-10T21:27:02.196Z,100692.17
2019-06-10T21:29:32.301Z,100682.48
2019-06-10T21:32:03.284Z,100665.45
2019-06-10T21:34:32.727Z,100646.23
2019-06-10T21:37:02.999Z,100637.71
2019-06-10T21:39:32.222Z,100635.83
2019-06-10T21:42:02.258Z,100640.27
2019-06-10T21:44:32.038Z,100630.43
2019-06-10T21:47:02.544Z,100636.66
2019-06-10T21:49:32.216Z,100642.90
2019-06-10T21:52:02.825Z,100647.01
2019-06-10T21:54:32.934Z,100643.65
2019-06-10T21:57:02.634Z,100637.66
2019-06-10T21:59:32.138Z,100641.49
2019-06-10T22:02:02.329Z,100634.89
2019-06-10T22:04:32.668Z,100643.89
2019-06-10T22:07:03.096Z,100649.28
2019-06-10T22:09:44.028Z,100644.48
2019-06-10T22:12:12.335Z,100645.44
2019-06-10T22:14:42.229Z,100638.97
2019-06-10T22:17:42.682Z,100632.84
2019-06-10T22:20:12.354Z,100629.85
2019-06-10T22:25:22.249Z,100617.53
2019-06-10T22:27:50.110Z,100623.52
2019-06-10T22:30:18.715Z,100623.16
2019-06-10T22:32:47.247Z,100612.02
2019-06-10T22:35:17.037Z,100613.45
2019-06-10T22:37:45.628Z,100611.52
2019-06-10T22:40:15.414Z,100612.97
2019-06-10T22:42:43.698Z,100616.31
2019-06-10T22:45:13.146Z,100621.22
2019-06-10T22:47:42.648Z,100624.55
2019-06-10T22:50:53.301Z,100626.73
2019-06-10T22:53:23.227Z,100623.61
2019-06-10T22:55:53.458Z,100625.66
2019-06-10T22:58:23.689Z,100633.20
2019-06-10T23:00:53.228Z,100636.44
2019-06-10T23:03:22.237Z,100641.80
2019-06-10T23:05:50.542Z,100656.30
2019-06-10T23:08:18.833Z,100649.70
2019-06-10T23:10:48.489Z,100645.63
2019-06-10T23:13:17.188Z,100647.59
2019-06-10T23:15:45.443Z,100649.59
2019-06-10T23:18:13.748Z,100656.67
2019-06-10T23:20:42.839Z,100643.59
2019-06-10T23:23:12.767Z,100638.09
2019-06-10T23:25:42.961Z,100633.64
2019-06-10T23:28:13.112Z,100640.48
2019-06-10T23:30:42.952Z,100651.02
2019-06-10T23:33:12.576Z,100663.61
2019-06-10T23:35:43.083Z,100662.45
2019-06-10T23:38:13.163Z,100646.45
2019-06-10T23:40:42.904Z,100642.84
2019-06-10T23:43:13.315Z,100633.89
2019-06-10T23:45:55.170Z,100631.47
2019-06-10T23:48:23.417Z,100642.87
2019-06-10T23:50:54.035Z,100649.95
2019-06-10T23:53:23.203Z,100659.02
2019-06-10T23:56:24.902Z,100653.50
2019-06-10T23:58:55.558Z,100596.33
